Detall de PIREP

Printer-friendly versionPDF version

[2013/12/21 09:31:00]
Flight IATA:CT1004
Pilot Number:012
Company ICAO:CAT
Aircraft Type:B463/A
PAX:100
Aircraft Registration:PAX
Departing Airport: LEBL
Destination Airport: EGLC
Alternate Airport:EGKK
Online: VATSIM
Route:OKABI UN861 FISTO UY156 PERIG UT210 DIBAG UN460 FOUCO UT183 TIRAV UN863 DIKRO UZ273 ANGLO UT220 NEVIL M189 WAFFU
Flight Level:F280
No Slew and time accel
No pause
Crash detect
Detect pilot in Cockpit between each 30 and 45 minutes
09:31 Zero fuel Weight: 73789 Lbs, Fuel Weight: 18015 Lbs
09:31 VATSIM:LEBL 210900Z 32012KT 9999 FEW015 05/01 Q1034 NOSIG
09:31 VATSIM:EGLC 210920Z 21018G34KT 9999 SCT010 BKN016 11/09 Q1015
09:31 VOICE CATALONIAN / X-MAS CHARTER
09:45 Parking Brakes off
09:52 Take-off
09:52 Take off Weight: 91173 Lbs
09:52 Wind: 329º @ 012 Knots Heading: 249º
09:52 POS N41º 17´ 13´´ E002º 05´ 14´´
09:52 Gear Up: 144 Knots
09:52 Flaps:2 at 144 Knots
09:53 Flaps:1 at 177 Knots
09:53 Flaps:0 at 177 Knots
10:04 TOC
10:04 Fuel Weight: 15302 Lb
10:07 Wind:006º@039 Knots Heading: 002º Ground Speed: 373 Knots Altitude 28608 ft
10:22 Wind:321º@014 Knots Heading: 002º Ground Speed: 408 Knots Altitude 28569 ft
10:37 Wind:284º@028 Knots Heading: 342º Ground Speed: 392 Knots Altitude 28546 ft
10:52 Wind:272º@042 Knots Heading: 292º Ground Speed: 369 Knots Altitude 28510 ft
11:07 Wind:247º@053 Knots Heading: 350º Ground Speed: 430 Knots Altitude 28372 ft
11:22 Wind:247º@076 Knots Heading: 023º Ground Speed: 473 Knots Altitude 28175 ft
11:37 Wind:241º@094 Knots Heading: 054º Ground Speed: 510 Knots Altitude 28054 ft
11:38 TOD
11:38 Fuel Weight: 6051 Lb
11:52 Wind:218º@018 Knots Heading: 285º Ground Speed: 186 Knots Altitude 3021 ft
11:57 Flaps:1 at 173 Knots
11:57 Flaps:2 at 124 Knots
12:00 Flaps:3 at 130 Knots
12:00 Gear Down: 128 Knots
12:01 Flaps:4 at 121 Knots
12:03 TouchDown:Rate -115 ft/min Speed: 111 Knots
12:04 VATSIM:EGLC 211150Z 21019G32KT 9999 SHRA SCT010 BKN016 12/09 Q1013
12:04 Land
12:04 Wind:221º@018 Knots
12:04 Heading: 273º
12:04 Flight Duration: 02:12
12:04 Landing Weight: 78728 Lbs
12:04 POS N51º 30´ 19´´ E000º 02´ 59´´
12:06 Parking brakes on
12:06 Block to Block Duration: 02:21
12:06 Final Fuel: 4854 Lbls
12:06 Spent Fuel: 13161 Lbls
12:06 Flight Length: 802 NM
12:06 TOD Land Length: 102 NM

Exportar CSV

Powered by Drupal - Modified by Danger4k